createdAt,value
2023-02-03T00:00:49.829Z,85.60
2023-02-03T00:03:19.594Z,85.50
2023-02-03T00:05:48.476Z,85.50
2023-02-03T00:08:18.856Z,85.50
2023-02-03T00:10:47.853Z,85.50
2023-02-03T00:13:16.484Z,85.50
2023-02-03T00:15:44.762Z,85.50
2023-02-03T00:18:13.086Z,85.40
2023-02-03T00:20:42.775Z,86.30
2023-02-03T00:23:12.325Z,85.40
2023-02-03T00:25:41.209Z,85.40
2023-02-03T00:28:09.543Z,85.40
2023-02-03T00:30:38.397Z,85.40
2023-02-03T00:33:06.699Z,85.40
2023-02-03T00:35:35.035Z,85.40
2023-02-03T00:38:04.748Z,85.30
2023-02-03T00:40:33.291Z,85.30
2023-02-03T00:43:01.511Z,85.20
2023-02-03T00:45:29.893Z,85.30
2023-02-03T00:47:58.219Z,85.20
2023-02-03T00:50:27.647Z,85.10
2023-02-03T00:52:56.151Z,85.20
2023-02-03T00:55:25.889Z,85.20
2023-02-03T00:57:54.137Z,85.30
2023-02-03T01:00:22.843Z,85.20
2023-02-03T01:02:51.158Z,85.20
2023-02-03T01:05:19.534Z,85.20
2023-02-03T01:07:47.783Z,85.10
2023-02-03T01:10:16.150Z,85.10
2023-02-03T01:12:45.902Z,85.10
2023-02-03T01:15:14.240Z,85.10
2023-02-03T01:17:42.512Z,85.10
2023-02-03T01:20:13.904Z,85.00
2023-02-03T01:22:42.271Z,85.00
2023-02-03T01:25:10.975Z,84.80
2023-02-03T01:27:39.338Z,84.80
2023-02-03T01:30:10.191Z,84.70
2023-02-03T01:32:38.450Z,84.80
2023-02-03T01:35:07.132Z,85.10
2023-02-03T01:37:35.511Z,85.20
2023-02-03T01:40:04.287Z,85.30
2023-02-03T01:42:34.898Z,85.60
2023-02-03T01:45:03.182Z,85.70
2023-02-03T01:47:35.909Z,85.70
2023-02-03T01:50:12.117Z,85.70
2023-02-03T01:52:43.326Z,85.80
2023-02-03T01:55:13.978Z,85.90
2023-02-03T01:57:47.313Z,86.00
2023-02-03T02:00:16.267Z,86.00
2023-02-03T02:02:48.616Z,86.10
2023-02-03T02:05:21.628Z,86.60
2023-02-03T02:07:50.739Z,86.50
2023-02-03T02:10:19.452Z,86.80
2023-02-03T02:12:48.946Z,86.70
2023-02-03T02:15:18.186Z,86.90
2023-02-03T02:18:20.286Z,86.90
2023-02-03T02:21:21.115Z,87.10
2023-02-03T02:24:30.731Z,87.00
2023-02-03T02:27:05.821Z,87.60
2023-02-03T02:30:03.730Z,87.60
2023-02-03T02:32:44.752Z,87.50
2023-02-03T02:35:21.647Z,87.50
2023-02-03T02:37:54.792Z,87.50
2023-02-03T02:40:29.604Z,87.40
2023-02-03T02:43:09.118Z,87.40
2023-02-03T02:45:46.628Z,87.40
2023-02-03T02:48:23.202Z,87.40
2023-02-03T02:50:56.452Z,87.50
2023-02-03T02:53:28.033Z,87.50
2023-02-03T02:55:58.612Z,87.50
2023-02-03T02:58:29.370Z,87.50
2023-02-03T03:00:57.694Z,87.40
2023-02-03T03:03:27.371Z,87.40
2023-02-03T03:05:58.105Z,87.30
2023-02-03T03:08:31.923Z,87.30
2023-02-03T03:11:02.978Z,87.30
2023-02-03T03:13:35.154Z,88.70
2023-02-03T03:16:05.361Z,87.90
2023-02-03T03:18:39.951Z,87.90
2023-02-03T03:21:09.362Z,87.70
2023-02-03T03:23:42.488Z,87.60
2023-02-03T03:26:15.654Z,87.40
2023-02-03T03:28:49.723Z,87.10
2023-02-03T03:31:20.250Z,87.00
2023-02-03T03:33:50.610Z,86.90
2023-02-03T03:36:26.237Z,86.90
2023-02-03T03:39:01.936Z,86.90
2023-02-03T03:41:40.441Z,86.90
2023-02-03T03:44:14.264Z,86.90
2023-02-03T03:46:48.803Z,86.90
2023-02-03T03:49:21.623Z,86.70
2023-02-03T03:51:52.811Z,86.70
2023-02-03T03:54:24.421Z,86.60
2023-02-03T03:56:59.251Z,86.30
2023-02-03T03:59:31.440Z,86.00
2023-02-03T04:02:04.734Z,86.10
2023-02-03T04:04:38.206Z,86.10
2023-02-03T04:07:06.442Z,85.80
2023-02-03T04:09:36.736Z,85.80
2023-02-03T04:12:06.375Z,85.60
2023-02-03T04:14:38.879Z,85.60
2023-02-03T04:17:07.503Z,85.80
2023-02-03T04:19:37.185Z,85.50
2023-02-03T04:22:05.580Z,85.60
2023-02-03T04:24:33.903Z,85.80
2023-02-03T04:27:04.294Z,85.70
2023-02-03T04:29:33.604Z,85.60
2023-02-03T04:32:02.050Z,85.50
2023-02-03T04:34:30.367Z,85.10
2023-02-03T04:37:00.095Z,85.80
2023-02-03T04:39:28.397Z,85.00
2023-02-03T04:41:57.149Z,85.00
2023-02-03T04:44:25.529Z,84.70
2023-02-03T04:46:53.872Z,84.70
2023-02-03T04:49:22.269Z,84.70
2023-02-03T04:51:50.683Z,84.70
2023-02-03T04:54:21.530Z,84.70
2023-02-03T04:56:49.851Z,84.50
2023-02-03T04:59:18.139Z,84.20
2023-02-03T05:01:46.457Z,84.20
2023-02-03T05:04:14.838Z,84.40
2023-02-03T05:06:43.120Z,84.20
2023-02-03T05:09:11.684Z,84.20
2023-02-03T05:11:41.459Z,84.10
2023-02-03T05:14:09.754Z,83.90
2023-02-03T05:16:38.189Z,83.70
2023-02-03T05:19:06.510Z,84.00
2023-02-03T05:21:34.803Z,83.80
2023-02-03T05:24:03.884Z,83.80
2023-02-03T05:26:32.161Z,83.70
2023-02-03T05:29:01.955Z,83.60
2023-02-03T05:31:30.256Z,83.70
2023-02-03T05:33:58.591Z,83.60
2023-02-03T05:36:26.833Z,83.70
2023-02-03T05:38:55.092Z,83.80
2023-02-03T05:41:40.823Z,83.80
2023-02-03T05:44:10.663Z,83.80
2023-02-03T05:46:38.962Z,83.60
2023-02-03T05:49:07.353Z,83.30
2023-02-03T05:51:35.637Z,83.30
2023-02-03T05:54:03.979Z,83.20
2023-02-03T05:56:32.303Z,83.20
2023-02-03T05:59:00.657Z,83.20
2023-02-03T06:01:30.660Z,83.20
2023-02-03T06:03:59.303Z,83.10
2023-02-03T06:06:33.171Z,83.30
2023-02-03T06:09:01.616Z,83.30
2023-02-03T06:11:30.406Z,83.30
2023-02-03T06:13:59.710Z,83.50
2023-02-03T06:16:30.331Z,83.60
2023-02-03T06:19:01.009Z,83.60
2023-02-03T06:21:29.904Z,83.60
2023-02-03T06:23:58.298Z,83.60
2023-02-03T06:26:26.867Z,83.30
2023-02-03T06:28:55.114Z,83.50
2023-02-03T06:31:23.467Z,83.30
2023-02-03T06:33:53.182Z,83.20
2023-02-03T06:36:21.524Z,83.00
2023-02-03T06:38:49.763Z,82.80
2023-02-03T06:41:18.042Z,83.00
2023-02-03T06:43:46.312Z,83.10
2023-02-03T06:46:14.701Z,83.20
2023-02-03T06:48:53.289Z,83.30
2023-02-03T06:51:21.666Z,83.30
2023-02-03T06:53:49.875Z,83.30
2023-02-03T06:56:18.170Z,83.30
2023-02-03T06:58:46.644Z,83.30
2023-02-03T07:01:14.991Z,83.10
2023-02-03T07:03:43.360Z,84.00
2023-02-03T07:06:13.069Z,83.00
2023-02-03T07:08:41.702Z,83.00
2023-02-03T07:11:10.110Z,82.90
2023-02-03T07:13:38.624Z,82.80
2023-02-03T07:16:07.829Z,82.50
2023-02-03T07:18:46.897Z,82.40
2023-02-03T07:21:19.406Z,82.30
2023-02-03T07:23:48.796Z,82.40
2023-02-03T07:26:18.990Z,82.40
2023-02-03T07:28:47.281Z,82.70
2023-02-03T07:31:15.821Z,83.00
2023-02-03T07:33:44.120Z,83.00
2023-02-03T07:36:12.913Z,83.00
2023-02-03T07:38:42.611Z,83.00
2023-02-03T07:41:11.073Z,82.70
2023-02-03T07:43:39.409Z,82.00
2023-02-03T07:46:16.790Z,81.80
2023-02-03T07:48:45.237Z,81.90
2023-02-03T07:51:15.691Z,81.80
2023-02-03T07:53:45.428Z,81.10
2023-02-03T07:56:13.958Z,79.90
2023-02-03T07:58:42.259Z,79.40
2023-02-03T08:01:15.477Z,79.90
2023-02-03T08:03:44.272Z,79.50
2023-02-03T08:06:12.667Z,80.00
2023-02-03T08:08:41.260Z,80.00
2023-02-03T08:11:10.971Z,80.00
2023-02-03T08:13:39.269Z,80.30
2023-02-03T08:16:08.418Z,80.20
2023-02-03T08:18:36.663Z,79.90
2023-02-03T08:21:05.392Z,80.00
2023-02-03T08:36:34.511Z,79.50
2023-02-03T08:39:02.767Z,78.40
2023-02-03T08:41:31.057Z,78.20
2023-02-03T08:43:59.315Z,78.00
2023-02-03T08:46:27.627Z,77.50
2023-02-03T08:48:56.572Z,77.50
2023-02-03T08:51:25.412Z,77.40
2023-02-03T08:53:55.082Z,77.20
2023-02-03T08:56:25.163Z,77.10
2023-02-03T08:58:55.004Z,76.80
2023-02-03T09:01:24.294Z,76.20
2023-02-03T09:03:52.559Z,76.10
2023-02-03T09:06:23.422Z,76.10
2023-02-03T09:08:52.374Z,75.90
2023-02-03T09:11:22.051Z,75.20
2023-02-03T09:13:50.756Z,75.20
2023-02-03T09:16:21.438Z,75.00
2023-02-03T09:18:50.028Z,74.60
2023-02-03T09:21:32.169Z,74.70
2023-02-03T09:24:06.146Z,74.80
2023-02-03T09:26:35.919Z,74.80
2023-02-03T09:29:04.632Z,73.20
2023-02-03T09:31:33.049Z,72.80
2023-02-03T09:34:01.519Z,73.20
2023-02-03T09:36:30.136Z,71.70
2023-02-03T09:38:59.063Z,69.70
2023-02-03T09:41:42.687Z,70.00
2023-02-03T09:44:15.976Z,68.80
2023-02-03T09:46:47.322Z,69.80
2023-02-03T09:49:22.354Z,69.30
2023-02-03T09:51:54.147Z,68.70
2023-02-03T09:54:27.929Z,68.20
2023-02-03T09:57:00.287Z,68.90
2023-02-03T09:59:31.852Z,69.50
2023-02-03T10:02:18.243Z,69.40
2023-02-03T10:04:55.449Z,68.90
2023-02-03T10:07:35.887Z,68.80
2023-02-03T10:10:14.313Z,68.80
2023-02-03T10:13:02.199Z,68.60
2023-02-03T10:15:59.973Z,69.40
2023-02-03T10:18:33.179Z,70.10
2023-02-03T10:21:05.015Z,70.50
2023-02-03T10:23:37.200Z,69.60
2023-02-03T10:26:08.806Z,68.90
2023-02-03T10:28:41.859Z,70.40
2023-02-03T10:31:18.111Z,69.90
2023-02-03T10:33:47.770Z,69.50
2023-02-03T10:36:21.877Z,69.50
2023-02-03T10:39:01.070Z,69.20
2023-02-03T10:41:32.297Z,69.40
2023-02-03T10:44:05.866Z,69.40
2023-02-03T10:46:37.294Z,69.50
2023-02-03T10:49:05.637Z,68.10
2023-02-03T10:51:39.909Z,68.00
2023-02-03T10:54:29.263Z,68.70
2023-02-03T10:57:03.987Z,67.30
2023-02-03T10:59:36.372Z,64.30
2023-02-03T11:02:26.114Z,66.30
2023-02-03T11:05:25.099Z,67.50
2023-02-03T11:07:54.762Z,68.00
2023-02-03T11:10:35.918Z,67.70
2023-02-03T11:13:28.386Z,67.90
2023-02-03T11:28:18.337Z,65.60
2023-02-03T11:30:46.810Z,64.20
2023-02-03T11:33:20.731Z,64.30
2023-02-03T11:35:57.930Z,63.80
2023-02-03T11:38:31.624Z,62.20
2023-02-03T11:41:02.898Z,60.80
2023-02-03T11:43:32.619Z,62.00
2023-02-03T11:46:04.801Z,60.90
2023-02-03T11:48:37.372Z,61.30
2023-02-03T11:51:14.885Z,60.90
2023-02-03T11:54:03.565Z,60.30
2023-02-03T11:56:43.060Z,60.80
2023-02-03T11:59:35.624Z,59.80
2023-02-03T12:02:35.810Z,59.70
2023-02-03T12:05:18.565Z,61.20
2023-02-03T12:08:02.860Z,61.70
2023-02-03T12:10:45.578Z,62.90
2023-02-03T12:13:30.582Z,63.60
2023-02-03T12:16:26.097Z,64.30
2023-02-03T12:19:06.456Z,64.30
2023-02-03T12:21:44.423Z,65.00
2023-02-03T12:24:25.714Z,65.40
2023-02-03T12:27:01.684Z,64.80
2023-02-03T12:29:38.638Z,61.90
2023-02-03T12:32:18.658Z,62.10
2023-02-03T12:34:51.887Z,62.40
2023-02-03T12:37:24.829Z,62.80
2023-02-03T12:39:54.687Z,62.10
2023-02-03T12:42:29.476Z,61.30
2023-02-03T12:45:02.488Z,60.10
2023-02-03T12:47:40.083Z,60.20
2023-02-03T12:50:17.546Z,60.20
2023-02-03T12:52:52.318Z,61.10
2023-02-03T12:55:28.566Z,61.90
2023-02-03T12:58:00.290Z,61.30
2023-02-03T13:00:39.875Z,61.60
2023-02-03T13:03:20.151Z,62.10
2023-02-03T13:05:53.556Z,62.60
2023-02-03T13:08:31.277Z,63.70
2023-02-03T13:11:09.719Z,64.50
2023-02-03T13:13:43.889Z,64.30
2023-02-03T13:16:16.296Z,64.30
2023-02-03T13:18:50.923Z,64.90
2023-02-03T13:21:19.343Z,64.20
2023-02-03T13:23:50.402Z,63.60
2023-02-03T13:26:54.301Z,62.70
2023-02-03T13:29:51.682Z,63.70
2023-02-03T13:32:33.546Z,62.20
2023-02-03T13:35:21.598Z,63.30
2023-02-03T13:38:16.581Z,63.10
2023-02-03T13:40:55.181Z,60.00
2023-02-03T13:43:38.238Z,56.20
2023-02-03T13:46:14.077Z,53.90
2023-02-03T13:48:46.925Z,50.60
2023-02-03T13:51:21.589Z,45.70
2023-02-03T13:53:52.219Z,44.30
2023-02-03T13:56:23.922Z,40.40
2023-02-03T13:59:04.693Z,39.80
2023-02-03T14:01:38.679Z,41.70
2023-02-03T14:04:09.142Z,43.20
2023-02-03T14:07:01.191Z,44.40
2023-02-03T14:09:42.956Z,43.60
2023-02-03T14:12:37.877Z,43.20
2023-02-03T14:15:46.875Z,43.30
2023-02-03T14:18:46.158Z,44.20
2023-02-03T14:21:19.132Z,43.10
2023-02-03T14:23:54.122Z,43.10
2023-02-03T14:26:29.780Z,42.20
2023-02-03T14:28:58.377Z,42.90
2023-02-03T14:31:28.433Z,42.50
2023-02-03T14:34:09.451Z,44.10
2023-02-03T14:36:53.037Z,45.10
2023-02-03T14:40:11.359Z,45.70
2023-02-03T14:43:18.143Z,46.90
2023-02-03T14:46:05.313Z,47.80
2023-02-03T14:48:56.446Z,48.60
2023-02-03T14:51:40.628Z,49.30
2023-02-03T14:54:29.365Z,50.00
2023-02-03T14:57:19.650Z,50.60
2023-02-03T14:59:52.058Z,51.30
2023-02-03T15:02:23.351Z,52.00
2023-02-03T15:04:52.189Z,52.60
2023-02-03T15:07:38.297Z,53.20
2023-02-03T15:10:15.178Z,54.40
2023-02-03T15:12:48.732Z,54.40
2023-02-03T15:15:24.727Z,55.00
2023-02-03T15:17:55.062Z,55.80
2023-02-03T15:20:34.670Z,56.60
2023-02-03T15:23:03.658Z,57.40
2023-02-03T15:25:33.777Z,58.00
2023-02-03T15:28:20.537Z,58.40
2023-02-03T15:30:56.902Z,59.10
2023-02-03T15:33:25.939Z,60.00
2023-02-03T15:35:58.604Z,62.50
2023-02-03T15:38:30.063Z,62.70
2023-02-03T15:40:59.554Z,64.00
2023-02-03T15:43:32.942Z,63.80
2023-02-03T15:46:08.901Z,65.50
2023-02-03T15:48:42.665Z,67.60
2023-02-03T15:51:14.508Z,68.10
2023-02-03T15:53:51.206Z,68.90
2023-02-03T15:56:24.274Z,68.70
2023-02-03T15:58:52.631Z,69.50
2023-02-03T16:01:26.316Z,70.60
2023-02-03T16:03:57.209Z,71.10
2023-02-03T16:06:30.631Z,70.70
2023-02-03T16:08:59.751Z,71.90
2023-02-03T16:11:32.561Z,72.20
2023-02-03T16:14:03.432Z,72.50
2023-02-03T16:16:37.492Z,73.00
2023-02-03T16:19:07.742Z,73.80
2023-02-03T16:21:38.646Z,74.40
2023-02-03T16:24:07.644Z,74.80
2023-02-03T16:26:38.684Z,75.20
2023-02-03T16:29:32.620Z,75.20
2023-02-03T16:32:19.808Z,76.10
2023-02-03T16:35:05.843Z,76.10
2023-02-03T16:38:03.139Z,77.10
2023-02-03T16:40:48.882Z,77.70
2023-02-03T16:43:36.074Z,78.20
2023-02-03T16:46:21.984Z,78.00
2023-02-03T16:49:09.032Z,79.00
2023-02-03T16:51:41.284Z,78.60
2023-02-03T16:54:14.366Z,78.50
2023-02-03T16:56:42.733Z,78.80
2023-02-03T16:59:11.053Z,79.20
2023-02-03T17:01:39.574Z,79.70
2023-02-03T17:04:11.079Z,79.70
2023-02-03T17:06:40.118Z,79.70
2023-02-03T17:09:08.526Z,80.00
2023-02-03T17:11:36.838Z,80.70
2023-02-03T17:14:05.243Z,81.30
2023-02-03T17:16:33.803Z,81.10
2023-02-03T17:19:02.171Z,81.70
2023-02-03T17:21:32.352Z,81.80
2023-02-03T17:24:01.035Z,82.10
2023-02-03T17:26:29.465Z,82.30
2023-02-03T17:29:03.085Z,82.40
2023-02-03T17:31:32.429Z,82.40
2023-02-03T17:34:00.830Z,82.50
2023-02-03T17:36:29.110Z,82.30
2023-02-03T17:55:35.423Z,82.70
2023-02-03T17:58:03.992Z,83.00
2023-02-03T18:00:32.575Z,83.00
2023-02-03T18:03:01.186Z,83.30
2023-02-03T18:05:29.941Z,83.20
2023-02-03T18:08:03.013Z,83.10
2023-02-03T18:10:39.167Z,83.00
2023-02-03T18:13:07.396Z,83.00
2023-02-03T18:15:37.905Z,82.90
2023-02-03T18:18:06.460Z,82.70
2023-02-03T18:20:35.104Z,82.60
2023-02-03T18:23:03.417Z,82.50
2023-02-03T18:25:31.700Z,82.40
2023-02-03T18:28:01.416Z,82.30
2023-02-03T18:30:29.933Z,82.20
2023-02-03T18:33:01.838Z,82.20
2023-02-03T18:35:30.406Z,82.50
2023-02-03T18:37:58.685Z,82.50
2023-02-03T18:40:27.003Z,82.60
2023-02-03T18:42:56.410Z,82.60
2023-02-03T18:45:26.175Z,82.50
2023-02-03T18:47:54.475Z,82.70
2023-02-03T18:50:22.865Z,82.60
2023-02-03T18:52:54.567Z,82.60
2023-02-03T18:55:23.316Z,82.50
2023-02-03T18:57:51.683Z,82.40
2023-02-03T19:00:20.779Z,82.40
2023-02-03T19:02:51.900Z,82.20
2023-02-03T19:05:20.349Z,82.10
2023-02-03T19:07:48.599Z,82.20
2023-02-03T19:10:17.226Z,82.10
2023-02-03T19:12:45.516Z,81.90
2023-02-03T19:15:13.832Z,81.90
2023-02-03T19:17:42.150Z,81.90
2023-02-03T19:20:13.981Z,81.80
2023-02-03T19:22:42.247Z,81.70
2023-02-03T19:25:11.082Z,81.70
2023-02-03T19:27:39.383Z,81.50
2023-02-03T19:30:08.377Z,81.50
2023-02-03T19:32:39.386Z,81.50
2023-02-03T19:35:08.248Z,81.30
2023-02-03T19:37:37.948Z,81.50
2023-02-03T19:40:07.311Z,81.40
2023-02-03T19:42:35.586Z,81.50
2023-02-03T19:45:05.074Z,81.50
2023-02-03T19:47:33.384Z,81.50
2023-02-03T19:50:01.663Z,81.60
2023-02-03T19:52:29.893Z,81.50
2023-02-03T19:54:59.572Z,81.50
2023-02-03T19:57:27.961Z,81.50
2023-02-03T19:59:56.745Z,81.60
2023-02-03T20:02:25.989Z,81.60
2023-02-03T20:04:54.330Z,81.50
2023-02-03T20:07:23.307Z,81.50
2023-02-03T20:09:51.689Z,81.50
2023-02-03T20:12:21.337Z,81.50
2023-02-03T20:14:49.580Z,81.50
2023-02-03T20:17:17.877Z,81.50
2023-02-03T20:19:46.166Z,81.50
2023-02-03T20:22:14.479Z,81.40
2023-02-03T20:24:42.773Z,81.40
2023-02-03T20:27:11.166Z,81.60
2023-02-03T20:29:40.796Z,81.70
2023-02-03T20:32:10.018Z,81.60
2023-02-03T20:34:42.874Z,81.60
2023-02-03T20:37:11.089Z,81.60
2023-02-03T20:39:39.707Z,82.00
2023-02-03T20:42:14.919Z,81.90
2023-02-03T20:44:45.009Z,81.90
2023-02-03T20:47:14.662Z,81.90
2023-02-03T20:49:43.030Z,81.70
2023-02-03T20:52:14.377Z,81.60
2023-02-03T20:54:42.767Z,81.50
2023-02-03T20:57:16.607Z,81.50
2023-02-03T20:59:47.044Z,81.50
2023-02-03T21:02:22.932Z,81.40
2023-02-03T21:05:00.278Z,81.40
2023-02-03T21:07:30.935Z,81.30
2023-02-03T21:10:00.150Z,81.30
2023-02-03T21:12:29.622Z,81.30
2023-02-03T21:14:59.566Z,81.20
2023-02-03T21:17:28.457Z,80.90
2023-02-03T21:19:56.734Z,81.00
2023-02-03T21:22:27.105Z,81.20
2023-02-03T21:24:57.547Z,81.20
2023-02-03T21:27:28.797Z,81.40
2023-02-03T21:29:59.818Z,81.50
2023-02-03T21:32:35.273Z,81.30
2023-02-03T21:35:03.635Z,81.30
2023-02-03T21:37:42.611Z,81.30
2023-02-03T21:40:25.248Z,81.30
2023-02-03T21:42:54.195Z,81.30
2023-02-03T21:45:45.054Z,81.20
2023-02-03T21:48:32.134Z,81.30
2023-02-03T21:51:05.739Z,81.70
2023-02-03T21:53:36.021Z,81.60
2023-02-03T21:56:23.485Z,81.50
2023-02-03T21:58:53.032Z,81.50
2023-02-03T22:01:26.105Z,81.50
2023-02-03T22:03:56.333Z,81.30
2023-02-03T22:06:27.206Z,81.30
2023-02-03T22:08:56.997Z,81.30
2023-02-03T22:11:28.044Z,81.30
2023-02-03T22:13:57.081Z,81.50
2023-02-03T22:16:28.265Z,81.60
2023-02-03T22:18:57.131Z,81.70
2023-02-03T22:21:26.061Z,81.60
2023-02-03T22:23:54.431Z,81.60
2023-02-03T22:26:22.815Z,81.60
2023-02-03T22:28:51.362Z,81.70
2023-02-03T22:31:19.899Z,81.80
2023-02-03T22:33:49.951Z,81.80
2023-02-03T22:36:18.317Z,81.80
2023-02-03T22:38:46.631Z,81.90
2023-02-03T22:41:14.923Z,81.90
2023-02-03T22:43:43.216Z,82.00
2023-02-03T22:46:11.574Z,82.20
2023-02-03T22:48:40.040Z,82.50
2023-02-03T22:51:09.899Z,82.50
2023-02-03T22:53:39.573Z,82.70
2023-02-03T22:56:08.336Z,82.70
2023-02-03T22:58:36.634Z,82.80
2023-02-03T23:01:04.958Z,82.80
2023-02-03T23:03:33.669Z,82.90
2023-02-03T23:06:02.025Z,83.10
2023-02-03T23:08:31.883Z,83.10
2023-02-03T23:11:00.288Z,83.40
2023-02-03T23:13:29.083Z,83.30
2023-02-03T23:15:57.622Z,83.40
2023-02-03T23:18:26.048Z,83.60
2023-02-03T23:20:54.310Z,83.60
2023-02-03T23:23:22.616Z,83.70
2023-02-03T23:25:52.323Z,83.80
2023-02-03T23:28:20.643Z,83.80
2023-02-03T23:30:49.007Z,83.70
2023-02-03T23:33:17.319Z,83.80
2023-02-03T23:35:47.598Z,83.70
2023-02-03T23:38:19.482Z,83.80
2023-02-03T23:40:47.939Z,83.70
2023-02-03T23:43:17.745Z,83.70
2023-02-03T23:45:46.319Z,83.70
2023-02-03T23:48:14.630Z,83.60
2023-02-03T23:50:43.009Z,83.60
2023-02-03T23:53:11.289Z,83.50
2023-02-03T23:55:39.598Z,83.50
2023-02-03T23:58:07.926Z,83.40
